Aérodrome :
LOGIN :

S'inscrire | Disclaimer

   EN    FR    IT 

 










Légende :    VFR   VFR Marginal   IFR   IFR Intensif   IFR Très Intensif
Visi : 
Plafond : 
>= 8 km
>= 3000ft
5 à 8 km
1000 à 3000 ft
1500m à 5 km
500 à 1000 ft
800 à 1500m
200 à 500 ft
< 800m
< 200 ft
Symboles :   Orages  Brouillard  Fortes neiges  Fortes précipitations  Vent > 20 kt
SIGMETs :   Divers  Orages  Givrage  Turbulence  Onde Orograph.  Cendres Volcan.







- Altitude de l'aérodrome : 138 ft
- Code IATA : RLG


ETNL - Rostock Laage

DERNIER METAR :
  • 200820Z 12007KT 3700 BR FEW007 SCT120 12/11 Q1012 GRN YLO BECMG WHT

METARs EXPIRÉS :
  • 200810Z 12007KT 3000 BR FEW006 12/11 Q1012 YLO YLO BECMG GRN
  • 200744Z 13006KT 2000 BR FEW003 11/10 Q1012 YLO YLO
  • 200720Z 12006KT 1900 R09/0550N BR FEW003 SCT130 11/11 Q1012 YLO YLO
  • 200714Z 12006KT 1800 R09////// BR SCT003 BKN130 11/10 Q1012 YLO YLO
  • 200640Z 12006KT 0800 R09/0600N FG BKN002 BKN130 11/10 Q1012 AMB AMB BECMG YLO
  • 200620Z 11006KT 0400 R09/0600N FG BKN001 BKN130 10/10 Q1012 RED AMB TEMPO RED

TAF TAF ETNL
Valide du 20 à 08h jusqu'au 20 à 17h UTC


200729Z 2008/2017 10008KT 1800 BR SCT003 SCT130
BECMG 2008/2009 11010KT 3000 BR SCT003 BKN100
BECMG 2009/2011 11012KT 8000 NSW FEW060 BKN100 BY ETGL
Pas de NOTAMs connus pour ce terrain.



MET'MAP, la Météo Aéronautique d'un coup d'oeil ! - Copyright ORBIFLY Décembre 2007 - Disclaimer

ORBIFLY MET'MAP TEAM :

Programmation & Développement : Alexandra Zaïnal
Conception & Développement : Baudouin d'Aumeries
Co-Programmation & Développement : Marc-Olivier Méhu
Soutien technique & logistique : Manuel Goepfert

Contact : metmap@orbifly.com




SOURCES & CREDITS :

   NOAA